Time;durP1;ratioP1;P1;durP2;ratioP2;P2;SDS_P1;SDS_P2;PMS_P1;PMS_P2;Temp;Humidity;BMP_temperature;BMP_pressure;BME280_temperature;BME280_humidity;BME280_pressure;Samples;Min_cycle;Max_cycle;Signal;HPM_P1;HPM_P2
2021/08/15 00:00:22;;;;;;;10.80;6.35;;;;;;;;;;5114084;28;20111;-68
2021/08/15 00:02:48;;;;;;;11.18;6.30;;;;;;;;;;5112587;28;20102;-69
2021/08/15 00:05:14;;;;;;;11.95;7.43;;;;;;;;;;5110569;28;20020;-68
2021/08/15 00:07:40;;;;;;;12.57;7.60;;;;;;;;;;5111254;28;20056;-67
2021/08/15 00:10:07;;;;;;;9.15;7.10;;;;;;;;;;5110801;28;20043;-69
2021/08/15 00:12:33;;;;;;;13.20;7.35;;;;;;;;;;5096204;28;20031;-68
2021/08/15 00:14:59;;;;;;;10.57;7.47;;;;;;;;;;5109000;28;20062;-68
2021/08/15 00:17:25;;;;;;;10.45;6.90;;;;;;;;;;5113439;28;20024;-67
2021/08/15 00:19:51;;;;;;;11.55;6.93;;;;;;;;;;5113312;28;20016;-68
2021/08/15 00:22:17;;;;;;;10.98;6.78;;;;;;;;;;5106416;28;20087;-69
2021/08/15 00:24:46;;;;;;;14.32;6.95;;;;;;;;;;5112946;28;20068;-69
2021/08/15 00:27:13;;;;;;;8.70;6.75;;;;;;;;;;5110078;28;20036;-68
2021/08/15 00:29:39;;;;;;;9.93;6.43;;;;;;;;;;5105590;28;20038;-68
2021/08/15 00:32:06;;;;;;;8.70;6.22;;;;;;;;;;5112126;28;20027;-69
2021/08/15 00:34:33;;;;;;;12.55;7.22;;;;;;;;;;5111730;28;20027;-68
2021/08/15 00:36:59;;;;;;;8.55;6.40;;;;;;;;;;5111063;28;20027;-68
2021/08/15 00:39:25;;;;;;;8.93;5.93;;;;;;;;;;5113496;28;20450;-68
2021/08/15 00:41:51;;;;;;;13.55;6.47;;;;;;;;;;5100298;28;20106;-68
2021/08/15 00:44:20;;;;;;;9.00;6.38;;;;;;;;;;5112165;28;20027;-69
2021/08/15 00:46:48;;;;;;;10.13;6.28;;;;;;;;;;5112973;28;20026;-69
2021/08/15 00:49:14;;;;;;;11.52;5.75;;;;;;;;;;5113571;28;20032;-69
2021/08/15 00:51:40;;;;;;;11.55;5.97;;;;;;;;;;5111515;28;20058;-69
2021/08/15 00:54:06;;;;;;;8.40;5.80;;;;;;;;;;5109146;28;20043;-68
2021/08/15 00:56:33;;;;;;;11.05;6.28;;;;;;;;;;5109415;28;20069;-68
2021/08/15 00:59:00;;;;;;;13.10;5.90;;;;;;;;;;5122342;28;20103;-68
2021/08/15 01:01:26;;;;;;;7.95;6.05;;;;;;;;;;5111911;28;20023;-68
2021/08/15 01:03:52;;;;;;;8.93;6.38;;;;;;;;;;5112932;28;20039;-69
2021/08/15 01:06:18;;;;;;;10.20;5.85;;;;;;;;;;5113339;28;20023;-68
2021/08/15 01:08:47;;;;;;;11.40;6.40;;;;;;;;;;5121822;28;20016;-69
2021/08/15 01:11:14;;;;;;;8.98;5.80;;;;;;;;;;5095173;28;20380;-69
2021/08/15 01:13:41;;;;;;;9.50;5.75;;;;;;;;;;5112164;28;20079;-68
2021/08/15 01:16:07;;;;;;;10.00;5.95;;;;;;;;;;5113104;28;20028;-68
2021/08/15 01:18:34;;;;;;;10.63;6.55;;;;;;;;;;5112514;28;20062;-68
2021/08/15 01:21:05;;;;;;;8.13;6.05;;;;;;;;;;5111379;28;20063;-69
2021/08/15 01:23:31;;;;;;;7.82;5.65;;;;;;;;;;5109639;28;20486;-68
2021/08/15 01:25:59;;;;;;;14.15;5.78;;;;;;;;;;5105562;28;20032;-69
2021/08/15 01:28:27;;;;;;;10.77;5.85;;;;;;;;;;5111811;28;20429;-69
2021/08/15 01:30:53;;;;;;;6.97;5.75;;;;;;;;;;5115479;28;20442;-68
2021/08/15 01:33:28;;;;;;;10.05;6.10;;;;;;;;;;5099911;28;20499;-69
2021/08/15 01:35:57;;;;;;;7.78;5.97;;;;;;;;;;5088918;28;20430;-69
2021/08/15 01:38:24;;;;;;;8.68;6.13;;;;;;;;;;5103871;28;20395;-68
2021/08/15 01:40:52;;;;;;;9.55;6.30;;;;;;;;;;5110979;28;20023;-68
2021/08/15 01:43:19;;;;;;;9.88;6.00;;;;;;;;;;5112120;28;20043;-68
2021/08/15 01:45:45;;;;;;;8.00;5.68;;;;;;;;;;5109048;28;20030;-68
2021/08/15 01:48:11;;;;;;;10.95;6.53;;;;;;;;;;5106564;28;20553;-69
2021/08/15 01:50:37;;;;;;;10.48;6.22;;;;;;;;;;5110865;28;20081;-69
2021/08/15 01:53:08;;;;;;;10.60;6.18;;;;;;;;;;5110233;28;20027;-68
2021/08/15 01:55:34;;;;;;;8.38;5.70;;;;;;;;;;5107771;28;20601;-68
2021/08/15 01:58:01;;;;;;;9.02;6.55;;;;;;;;;;5105271;28;20126;-68
2021/08/15 02:00:48;;;;;;;8.85;5.97;;;;;;;;;;5117583;28;20028;-69
2021/08/15 02:03:17;;;;;;;10.43;5.85;;;;;;;;;;5110253;28;20024;-68
2021/08/15 02:05:43;;;;;;;9.32;6.15;;;;;;;;;;5106430;28;20024;-69
2021/08/15 02:08:12;;;;;;;9.05;6.50;;;;;;;;;;5116231;28;20027;-69
2021/08/15 02:10:39;;;;;;;10.55;6.15;;;;;;;;;;5111615;28;20139;-69
2021/08/15 02:13:05;;;;;;;9.20;6.10;;;;;;;;;;5116010;28;20023;-69
2021/08/15 02:15:32;;;;;;;10.43;6.45;;;;;;;;;;5116224;28;20024;-68
2021/08/15 02:18:00;;;;;;;7.57;5.95;;;;;;;;;;5115916;28;20043;-68
2021/08/15 02:20:26;;;;;;;12.43;6.28;;;;;;;;;;5115024;28;20564;-68
2021/08/15 02:22:52;;;;;;;8.07;6.50;;;;;;;;;;5111872;28;20027;-69
2021/08/15 02:25:19;;;;;;;8.40;5.93;;;;;;;;;;5110879;28;20035;-69
2021/08/15 02:27:45;;;;;;;8.98;6.10;;;;;;;;;;5106818;28;20027;-68
2021/08/15 02:30:12;;;;;;;9.82;6.43;;;;;;;;;;5112712;28;20391;-68
2021/08/15 02:32:39;;;;;;;7.50;6.00;;;;;;;;;;5113265;28;20026;-69
2021/08/15 02:35:08;;;;;;;7.20;5.85;;;;;;;;;;5103916;28;20038;-68
2021/08/15 02:37:34;;;;;;;13.38;6.28;;;;;;;;;;5115619;28;20103;-68
2021/08/15 02:40:01;;;;;;;7.60;5.97;;;;;;;;;;5114534;28;20023;-68
2021/08/15 02:42:31;;;;;;;11.27;6.50;;;;;;;;;;5108607;28;20444;-68
2021/08/15 02:44:58;;;;;;;14.40;6.50;;;;;;;;;;5114339;28;20024;-68
2021/08/15 02:47:25;;;;;;;10.05;6.68;;;;;;;;;;5113571;28;20016;-69
2021/08/15 02:49:51;;;;;;;9.57;6.10;;;;;;;;;;5113330;28;20051;-69
2021/08/15 02:52:17;;;;;;;10.57;6.18;;;;;;;;;;5114219;28;20616;-69
2021/08/15 02:54:44;;;;;;;12.63;5.80;;;;;;;;;;5114937;28;20477;-68
2021/08/15 02:57:10;;;;;;;8.32;6.40;;;;;;;;;;5107605;28;20032;-69
2021/08/15 02:59:39;;;;;;;10.98;6.57;;;;;;;;;;5115307;28;20063;-68
2021/08/15 03:02:07;;;;;;;9.27;5.93;;;;;;;;;;5111537;28;20431;-68
2021/08/15 03:04:33;;;;;;;10.63;6.30;;;;;;;;;;5096515;28;20491;-69
2021/08/15 03:06:59;;;;;;;8.85;6.25;;;;;;;;;;5115479;28;20019;-69
2021/08/15 03:09:25;;;;;;;8.20;5.82;;;;;;;;;;5115001;28;20050;-69
2021/08/15 03:11:51;;;;;;;8.07;6.32;;;;;;;;;;5114031;28;20023;-69
2021/08/15 03:14:17;;;;;;;12.57;7.07;;;;;;;;;;5111399;28;20028;-69
2021/08/15 03:16:44;;;;;;;10.75;6.30;;;;;;;;;;5114075;28;20088;-68
2021/08/15 03:19:10;;;;;;;10.35;6.13;;;;;;;;;;5115337;28;20038;-68
2021/08/15 03:21:36;;;;;;;11.18;6.30;;;;;;;;;;5113140;28;20534;-68
2021/08/15 03:24:03;;;;;;;8.43;6.28;;;;;;;;;;5114807;28;20063;-68
2021/08/15 03:26:36;;;;;;;10.43;6.25;;;;;;;;;;5108308;28;20030;-68
2021/08/15 03:29:03;;;;;;;9.93;6.45;;;;;;;;;;5105273;28;20810;-69
2021/08/15 03:31:29;;;;;;;10.50;6.82;;;;;;;;;;5108087;28;20031;-69
2021/08/15 03:33:55;;;;;;;10.90;6.28;;;;;;;;;;5113567;28;20035;-69
2021/08/15 03:36:21;;;;;;;18.65;7.30;;;;;;;;;;5105576;28;20038;-69
2021/08/15 03:38:47;;;;;;;24.13;7.43;;;;;;;;;;5114435;28;20477;-69
2021/08/15 03:41:13;;;;;;;11.98;6.80;;;;;;;;;;5107797;28;20547;-69
2021/08/15 03:43:39;;;;;;;18.35;7.05;;;;;;;;;;5113792;28;20499;-67
2021/08/15 03:46:05;;;;;;;8.45;6.93;;;;;;;;;;5107359;28;20393;-69
2021/08/15 03:48:31;;;;;;;15.15;7.32;;;;;;;;;;5108300;28;20397;-68
2021/08/15 03:50:57;;;;;;;10.90;7.07;;;;;;;;;;5110943;28;20043;-69
2021/08/15 03:53:23;;;;;;;10.50;7.32;;;;;;;;;;5104633;28;20032;-69
2021/08/15 03:55:49;;;;;;;13.10;7.53;;;;;;;;;;5105556;28;20054;-68
2021/08/15 03:58:15;;;;;;;11.90;6.95;;;;;;;;;;5114385;28;20529;-68
2021/08/15 04:00:44;;;;;;;11.57;6.78;;;;;;;;;;5094195;28;20443;-68
2021/08/15 04:03:10;;;;;;;11.13;7.30;;;;;;;;;;5101833;28;20059;-67
2021/08/15 04:05:37;;;;;;;10.18;7.22;;;;;;;;;;5109770;28;20032;-68
2021/08/15 04:11:06;;;;;;;10.27;7.00;;;;;;;;;;4727741;22;20057;-67
2021/08/15 04:13:32;;;;;;;12.50;6.15;;;;;;;;;;5013680;28;20034;-67
2021/08/15 04:15:58;;;;;;;10.90;5.88;;;;;;;;;;5013914;28;20050;-67
2021/08/15 04:18:24;;;;;;;14.73;6.28;;;;;;;;;;5013743;28;20037;-67
2021/08/15 04:20:50;;;;;;;12.93;7.00;;;;;;;;;;5013960;28;20026;-68
2021/08/15 04:23:16;;;;;;;10.38;6.22;;;;;;;;;;5012772;28;20104;-67
2021/08/15 04:25:42;;;;;;;17.67;6.95;;;;;;;;;;5012281;28;20024;-67
2021/08/15 04:28:08;;;;;;;12.10;7.20;;;;;;;;;;5012349;28;20391;-67
2021/08/15 04:30:34;;;;;;;11.57;6.97;;;;;;;;;;5013445;28;20424;-67
2021/08/15 04:33:00;;;;;;;12.63;6.70;;;;;;;;;;5013621;28;20426;-67
2021/08/15 04:35:26;;;;;;;10.52;6.40;;;;;;;;;;5013303;28;20392;-67
2021/08/15 04:37:52;;;;;;;11.07;6.72;;;;;;;;;;5012909;28;20072;-67
2021/08/15 04:40:18;;;;;;;11.90;6.47;;;;;;;;;;5007923;28;20503;-67
2021/08/15 04:42:44;;;;;;;10.63;6.30;;;;;;;;;;5006238;28;20030;-67
2021/08/15 04:45:11;;;;;;;11.15;6.60;;;;;;;;;;5015758;28;20037;-68
2021/08/15 04:47:37;;;;;;;12.80;7.05;;;;;;;;;;5013037;28;20038;-80
2021/08/15 04:50:03;;;;;;;12.45;7.18;;;;;;;;;;4994480;28;20034;-69
2021/08/15 04:52:29;;;;;;;10.02;6.88;;;;;;;;;;5012279;28;20088;-68
2021/08/15 04:54:55;;;;;;;11.55;7.07;;;;;;;;;;5012255;28;20037;-68
2021/08/15 04:57:21;;;;;;;10.35;6.57;;;;;;;;;;5012846;28;20080;-81
2021/08/15 04:59:47;;;;;;;15.75;7.15;;;;;;;;;;5006898;28;20026;-81
2021/08/15 05:02:15;;;;;;;14.52;6.93;;;;;;;;;;4997810;28;20038;-78
2021/08/15 05:04:41;;;;;;;12.77;7.28;;;;;;;;;;5450483;22;20064;-69
2021/08/15 05:07:07;;;;;;;19.45;7.55;;;;;;;;;;5003911;28;20138;-68
2021/08/15 05:09:33;;;;;;;16.00;7.90;;;;;;;;;;4991851;28;20042;-70
2021/08/15 05:11:59;;;;;;;16.35;7.82;;;;;;;;;;5011304;28;20025;-67
2021/08/15 05:14:25;;;;;;;9.23;6.50;;;;;;;;;;5008295;28;20057;-68
2021/08/15 05:16:51;;;;;;;13.98;7.05;;;;;;;;;;5007032;28;20026;-68
2021/08/15 05:19:17;;;;;;;13.60;7.70;;;;;;;;;;5013291;28;20030;-70
2021/08/15 05:21:43;;;;;;;19.10;8.27;;;;;;;;;;5010795;28;20036;-70
2021/08/15 05:24:09;;;;;;;13.25;7.55;;;;;;;;;;5019185;28;20064;-69
2021/08/15 05:26:35;;;;;;;15.75;7.38;;;;;;;;;;5012077;28;20041;-68
2021/08/15 05:29:02;;;;;;;17.45;7.13;;;;;;;;;;5009475;28;20081;-68
2021/08/15 05:31:28;;;;;;;16.02;7.90;;;;;;;;;;5016679;28;20030;-69
2021/08/15 05:33:54;;;;;;;19.40;7.35;;;;;;;;;;5010176;28;20022;-68
2021/08/15 05:36:20;;;;;;;10.00;6.80;;;;;;;;;;5011187;28;20026;-67
2021/08/15 05:38:46;;;;;;;11.15;6.93;;;;;;;;;;5010472;28;20038;-66
2021/08/15 05:41:12;;;;;;;11.80;7.22;;;;;;;;;;5011001;28;20029;-67
2021/08/15 05:43:38;;;;;;;11.35;7.15;;;;;;;;;;5010752;28;20037;-67
2021/08/15 05:46:04;;;;;;;14.07;7.13;;;;;;;;;;5009668;28;20030;-68
2021/08/15 05:48:31;;;;;;;14.57;8.05;;;;;;;;;;5010130;28;20038;-67
2021/08/15 05:50:57;;;;;;;14.25;7.78;;;;;;;;;;4993559;28;20072;-67
2021/08/15 05:53:23;;;;;;;17.30;7.75;;;;;;;;;;5004372;28;20022;-68
2021/08/15 05:55:49;;;;;;;28.08;8.18;;;;;;;;;;5009553;28;20026;-69
2021/08/15 05:58:15;;;;;;;18.27;8.40;;;;;;;;;;5010705;28;20133;-72
2021/08/15 06:00:42;;;;;;;14.95;7.18;;;;;;;;;;5010819;28;20392;-69
2021/08/15 06:03:08;;;;;;;17.50;7.50;;;;;;;;;;5012786;28;20133;-70
2021/08/15 06:05:34;;;;;;;16.95;9.02;;;;;;;;;;5002702;28;20089;-67
2021/08/15 06:08:00;;;;;;;15.60;7.80;;;;;;;;;;4989374;28;20033;-69
2021/08/15 06:10:26;;;;;;;9.73;7.38;;;;;;;;;;4988504;28;20042;-68
2021/08/15 06:12:53;;;;;;;14.63;8.02;;;;;;;;;;4986024;28;20455;-74
2021/08/15 06:15:19;;;;;;;14.45;7.28;;;;;;;;;;4990801;28;20094;-78
2021/08/15 06:17:45;;;;;;;13.07;8.23;;;;;;;;;;4989303;28;20026;-73
2021/08/15 06:20:12;;;;;;;13.68;7.32;;;;;;;;;;4973303;28;20089;-71
2021/08/15 06:22:42;;;;;;;16.75;8.23;;;;;;;;;;4989302;28;20054;-71
2021/08/15 06:25:09;;;;;;;25.27;8.00;;;;;;;;;;4998565;28;20034;-71
2021/08/15 06:27:35;;;;;;;16.60;7.28;;;;;;;;;;4995309;28;20063;-77
2021/08/15 06:30:02;;;;;;;31.25;8.80;;;;;;;;;;4992791;28;20091;-71
2021/08/15 06:32:28;;;;;;;27.15;7.63;;;;;;;;;;4992985;28;20030;-66
2021/08/15 06:34:54;;;;;;;18.05;7.63;;;;;;;;;;4990246;28;20062;-69
2021/08/15 06:37:20;;;;;;;24.80;7.03;;;;;;;;;;4992598;28;20484;-70
2021/08/15 06:39:46;;;;;;;16.92;7.50;;;;;;;;;;4992471;28;20408;-73
2021/08/15 06:42:12;;;;;;;14.73;7.88;;;;;;;;;;4991976;28;20023;-68
2021/08/15 06:44:38;;;;;;;17.23;8.25;;;;;;;;;;4993157;28;20033;-72
2021/08/15 06:47:06;;;;;;;10.65;7.70;;;;;;;;;;4991615;28;20448;-71
2021/08/15 06:49:33;;;;;;;15.02;7.75;;;;;;;;;;4993355;28;20549;-69
2021/08/15 06:51:59;;;;;;;13.25;8.05;;;;;;;;;;4992570;28;20086;-72
2021/08/15 06:54:25;;;;;;;15.88;8.32;;;;;;;;;;4994717;28;20458;-72
2021/08/15 06:56:51;;;;;;;16.40;7.40;;;;;;;;;;4993477;28;20030;-70
2021/08/15 06:59:18;;;;;;;15.40;7.32;;;;;;;;;;4994211;28;20025;-69
2021/08/15 07:01:44;;;;;;;9.80;7.45;;;;;;;;;;4999800;28;20053;-70
2021/08/15 07:04:10;;;;;;;15.68;7.18;;;;;;;;;;4995410;28;20030;-73
2021/08/15 07:06:36;;;;;;;16.77;7.88;;;;;;;;;;5007769;28;20116;-71
2021/08/15 07:09:02;;;;;;;13.85;8.00;;;;;;;;;;4992656;28;20046;-72
2021/08/15 07:11:28;;;;;;;10.82;6.63;;;;;;;;;;5011430;28;20062;-77
2021/08/15 07:13:54;;;;;;;18.15;7.25;;;;;;;;;;5006637;28;20025;-74
2021/08/15 07:16:20;;;;;;;11.30;7.10;;;;;;;;;;5009406;28;20058;-69
2021/08/15 07:18:46;;;;;;;9.95;7.05;;;;;;;;;;5011833;28;20026;-67
2021/08/15 07:21:12;;;;;;;14.93;6.82;;;;;;;;;;5013687;28;20046;-67
2021/08/15 07:23:38;;;;;;;16.17;7.55;;;;;;;;;;5011585;28;20030;-67
2021/08/15 07:26:04;;;;;;;11.27;6.55;;;;;;;;;;5007845;28;20109;-68
2021/08/15 07:28:30;;;;;;;14.45;6.32;;;;;;;;;;5012341;28;20480;-67
2021/08/15 07:30:57;;;;;;;14.05;7.15;;;;;;;;;;5013481;28;20137;-67
2021/08/15 07:33:23;;;;;;;20.98;7.47;;;;;;;;;;5005041;28;20411;-67
2021/08/15 07:35:49;;;;;;;15.52;7.80;;;;;;;;;;5009613;28;20022;-67
2021/08/15 07:38:15;;;;;;;12.65;7.22;;;;;;;;;;5009959;28;20038;-67
2021/08/15 07:40:41;;;;;;;13.57;7.20;;;;;;;;;;5012623;28;20033;-67
2021/08/15 07:43:07;;;;;;;12.32;6.40;;;;;;;;;;5007975;28;20049;-67
2021/08/15 07:45:34;;;;;;;16.70;7.53;;;;;;;;;;4994541;28;20057;-67
2021/08/15 07:48:00;;;;;;;12.40;7.45;;;;;;;;;;5012068;28;20035;-66
2021/08/15 07:50:29;;;;;;;12.27;6.78;;;;;;;;;;5012612;28;20093;-68
2021/08/15 07:52:55;;;;;;;21.77;7.05;;;;;;;;;;5012800;28;20056;-67
2021/08/15 07:55:21;;;;;;;14.27;7.43;;;;;;;;;;5008492;28;20022;-67
2021/08/15 07:57:47;;;;;;;22.13;7.43;;;;;;;;;;5010753;28;20026;-67
2021/08/15 08:00:14;;;;;;;10.80;6.88;;;;;;;;;;5012224;28;20026;-67
2021/08/15 08:02:40;;;;;;;8.50;5.70;;;;;;;;;;5011709;28;20403;-68
2021/08/15 08:05:06;;;;;;;11.48;6.63;;;;;;;;;;5010884;28;20018;-67
2021/08/15 08:07:32;;;;;;;13.35;5.82;;;;;;;;;;5012106;28;20042;-67
2021/08/15 08:09:58;;;;;;;10.65;5.68;;;;;;;;;;5012521;28;20551;-67
2021/08/15 08:12:24;;;;;;;9.18;6.55;;;;;;;;;;5011208;28;20026;-67
2021/08/15 08:14:50;;;;;;;10.93;5.95;;;;;;;;;;5012668;28;20037;-67
2021/08/15 08:17:17;;;;;;;9.30;5.72;;;;;;;;;;5012994;28;20380;-67
2021/08/15 08:19:43;;;;;;;11.73;6.75;;;;;;;;;;5010633;28;20030;-67
2021/08/15 08:22:10;;;;;;;7.95;5.45;;;;;;;;;;5006093;28;20121;-67
2021/08/15 08:24:36;;;;;;;13.13;6.20;;;;;;;;;;5012015;28;20022;-67
2021/08/15 08:27:02;;;;;;;9.70;5.38;;;;;;;;;;5012517;28;20697;-66
2021/08/15 08:29:29;;;;;;;8.25;5.63;;;;;;;;;;5012569;28;20961;-67
2021/08/15 08:31:55;;;;;;;11.77;5.80;;;;;;;;;;5011943;28;20033;-68
2021/08/15 08:34:21;;;;;;;14.18;5.80;;;;;;;;;;5011853;28;20109;-68
2021/08/15 08:36:47;;;;;;;12.27;6.57;;;;;;;;;;5008951;28;20041;-68
2021/08/15 08:39:13;;;;;;;9.93;5.82;;;;;;;;;;5012058;28;20156;-67
2021/08/15 08:41:39;;;;;;;9.48;5.47;;;;;;;;;;5011924;28;20069;-66
2021/08/15 08:44:07;;;;;;;11.23;5.82;;;;;;;;;;5011615;28;20387;-67
2021/08/15 08:46:33;;;;;;;15.43;6.03;;;;;;;;;;5011099;28;20173;-67
2021/08/15 08:48:59;;;;;;;11.90;6.43;;;;;;;;;;5009568;28;20502;-67
2021/08/15 08:51:25;;;;;;;14.43;6.80;;;;;;;;;;5008736;28;20034;-67
2021/08/15 08:53:52;;;;;;;25.95;7.20;;;;;;;;;;5011529;28;20396;-67
2021/08/15 08:56:22;;;;;;;8.55;6.25;;;;;;;;;;5011711;28;20484;-67
2021/08/15 08:58:49;;;;;;;10.90;5.85;;;;;;;;;;5011542;28;20020;-67
2021/08/15 09:01:15;;;;;;;10.32;6.07;;;;;;;;;;5010844;28;20053;-67
2021/08/15 09:03:41;;;;;;;10.25;6.10;;;;;;;;;;5008074;28;20033;-67
2021/08/15 09:06:19;;;;;;;9.43;5.80;;;;;;;;;;5008853;28;20058;-67
2021/08/15 09:08:49;;;;;;;9.27;5.88;;;;;;;;;;5006770;28;20483;-68
2021/08/15 09:11:24;;;;;;;11.40;5.88;;;;;;;;;;5009984;28;20036;-67
2021/08/15 09:14:05;;;;;;;11.85;5.82;;;;;;;;;;5010068;28;20105;-67
2021/08/15 09:16:52;;;;;;;12.73;6.40;;;;;;;;;;5010752;28;20096;-67
2021/08/15 09:19:26;;;;;;;10.48;6.70;;;;;;;;;;5010486;28;20476;-67
2021/08/15 09:21:52;;;;;;;10.90;6.57;;;;;;;;;;5009842;28;20156;-68
2021/08/15 09:24:18;;;;;;;12.07;6.63;;;;;;;;;;5011204;28;20140;-67
2021/08/15 09:26:57;;;;;;;8.88;5.93;;;;;;;;;;5008412;28;20022;-67
2021/08/15 09:29:24;;;;;;;12.63;6.30;;;;;;;;;;5008849;28;20074;-67
2021/08/15 09:31:50;;;;;;;8.80;6.40;;;;;;;;;;5010342;28;20029;-68
2021/08/15 09:34:26;;;;;;;8.63;6.18;;;;;;;;;;5010767;28;20084;-66
2021/08/15 09:36:52;;;;;;;12.38;7.03;;;;;;;;;;5007424;28;20608;-68
2021/08/15 09:39:30;;;;;;;9.68;5.72;;;;;;;;;;5003383;28;20026;-68
2021/08/15 09:41:58;;;;;;;11.90;7.00;;;;;;;;;;5010848;28;20061;-68
2021/08/15 09:44:26;;;;;;;8.43;6.45;;;;;;;;;;5007878;28;20029;-67
2021/08/15 09:47:18;;;;;;;7.95;5.93;;;;;;;;;;5006791;28;20025;-67
2021/08/15 09:49:50;;;;;;;9.30;5.70;;;;;;;;;;5004075;28;20077;-66
2021/08/15 09:52:17;;;;;;;11.60;5.80;;;;;;;;;;5008532;28;20067;-67
2021/08/15 09:55:02;;;;;;;9.82;6.57;;;;;;;;;;5009867;28;20112;-66
2021/08/15 09:57:29;;;;;;;10.27;6.30;;;;;;;;;;5010866;28;20022;-66
2021/08/15 09:59:55;;;;;;;9.50;5.70;;;;;;;;;;5010091;28;20068;-67
2021/08/15 10:02:23;;;;;;;7.65;5.85;;;;;;;;;;5008120;28;20029;-66
2021/08/15 10:04:52;;;;;;;13.07;6.00;;;;;;;;;;5010760;28;20022;-65
2021/08/15 10:07:18;;;;;;;13.15;6.20;;;;;;;;;;5009129;28;20094;-67
2021/08/15 10:09:44;;;;;;;11.07;5.38;;;;;;;;;;5008999;28;20125;-66
2021/08/15 10:12:10;;;;;;;9.30;5.90;;;;;;;;;;5010414;28;20479;-66
2021/08/15 10:14:38;;;;;;;11.00;5.70;;;;;;;;;;5010318;28;20468;-67
2021/08/15 10:17:05;;;;;;;9.63;5.90;;;;;;;;;;5005224;28;20027;-66
2021/08/15 10:19:31;;;;;;;8.05;6.00;;;;;;;;;;5006829;28;20540;-67
2021/08/15 10:21:58;;;;;;;12.02;6.10;;;;;;;;;;5009871;28;20387;-67
2021/08/15 10:24:39;;;;;;;11.70;5.90;;;;;;;;;;5009084;28;20120;-67
2021/08/15 10:27:05;;;;;;;10.25;5.80;;;;;;;;;;5013556;28;20026;-66
2021/08/15 10:29:36;;;;;;;12.15;6.47;;;;;;;;;;5013837;28;20069;-66
2021/08/15 10:32:07;;;;;;;9.32;5.78;;;;;;;;;;5014364;28;20033;-65
2021/08/15 10:34:54;;;;;;;7.57;5.80;;;;;;;;;;5014325;28;20492;-66
2021/08/15 10:37:23;;;;;;;8.95;6.00;;;;;;;;;;5014600;28;20065;-66
2021/08/15 10:39:50;;;;;;;7.35;5.35;;;;;;;;;;5011833;28;20026;-66
2021/08/15 10:42:35;;;;;;;12.23;6.70;;;;;;;;;;5013571;28;20026;-66
2021/08/15 10:45:02;;;;;;;9.70;6.43;;;;;;;;;;5013382;28;20108;-66
2021/08/15 10:47:28;;;;;;;9.27;5.82;;;;;;;;;;5014110;28;20431;-67
2021/08/15 10:50:02;;;;;;;10.85;5.95;;;;;;;;;;5013080;28;20057;-66
2021/08/15 10:52:45;;;;;;;9.52;6.50;;;;;;;;;;5013434;28;20029;-66
2021/08/15 10:55:12;;;;;;;32.00;6.88;;;;;;;;;;5013335;28;20088;-66
2021/08/15 10:57:45;;;;;;;10.55;5.75;;;;;;;;;;5014946;28;20021;-67
2021/08/15 11:00:30;;;;;;;11.80;5.95;;;;;;;;;;5009910;28;20034;-67
2021/08/15 11:03:00;;;;;;;9.75;6.32;;;;;;;;;;5010744;28;20041;-67
2021/08/15 11:05:35;;;;;;;9.70;6.30;;;;;;;;;;4989322;28;20494;-67
2021/08/15 11:08:01;;;;;;;12.93;6.00;;;;;;;;;;5013768;28;20081;-66
2021/08/15 11:10:47;;;;;;;10.65;5.80;;;;;;;;;;5014845;28;20034;-66
2021/08/15 11:13:23;;;;;;;9.27;6.28;;;;;;;;;;5020347;28;20045;-65
2021/08/15 11:15:53;;;;;;;9.38;6.10;;;;;;;;;;5015325;28;20018;-66
2021/08/15 11:18:20;;;;;;;11.48;5.97;;;;;;;;;;5013003;28;20097;-66
2021/08/15 11:20:47;;;;;;;11.57;6.07;;;;;;;;;;5013450;28;20033;-67
2021/08/15 11:23:18;;;;;;;11.43;5.75;;;;;;;;;;5013353;28;20034;-66
2021/08/15 11:25:45;;;;;;;11.38;5.70;;;;;;;;;;5007174;28;20106;-67
2021/08/15 11:28:11;;;;;;;12.02;6.20;;;;;;;;;;5013603;28;20154;-66
2021/08/15 11:30:38;;;;;;;9.75;6.10;;;;;;;;;;5013129;28;20491;-67
2021/08/15 11:33:07;;;;;;;9.63;5.80;;;;;;;;;;5010447;28;20080;-67
2021/08/15 11:35:35;;;;;;;11.05;5.85;;;;;;;;;;5010137;28;20117;-67
2021/08/15 11:38:01;;;;;;;7.90;5.40;;;;;;;;;;5012175;28;20066;-67
2021/08/15 11:40:29;;;;;;;10.98;5.40;;;;;;;;;;5011511;28;20037;-66
2021/08/15 11:43:18;;;;;;;12.60;6.07;;;;;;;;;;5009778;28;20036;-67
2021/08/15 11:45:46;;;;;;;13.25;6.07;;;;;;;;;;4951894;29;20043;-66
2021/08/15 11:48:15;;;;;;;8.95;6.43;;;;;;;;;;4950491;29;20107;-65
2021/08/15 11:51:02;;;;;;;11.02;5.53;;;;;;;;;;4952270;29;20119;-66
2021/08/15 11:53:34;;;;;;;8.57;5.30;;;;;;;;;;4950230;29;20063;-67
2021/08/15 11:56:23;;;;;;;7.38;5.22;;;;;;;;;;4951486;29;20031;-67
2021/08/15 11:58:52;;;;;;;9.80;5.72;;;;;;;;;;4955111;28;20504;-66
2021/08/15 12:01:20;;;;;;;13.82;5.70;;;;;;;;;;4949767;28;20039;-66
2021/08/15 12:03:59;;;;;;;8.93;5.43;;;;;;;;;;4949640;29;20040;-66
2021/08/15 12:06:25;;;;;;;10.25;5.47;;;;;;;;;;4951378;29;20557;-65
2021/08/15 12:08:51;;;;;;;7.85;5.75;;;;;;;;;;4952568;28;20039;-66
2021/08/15 12:11:31;;;;;;;10.48;5.47;;;;;;;;;;4946642;29;20035;-66
2021/08/15 12:14:09;;;;;;;18.27;6.22;;;;;;;;;;4952327;29;20038;-67
2021/08/15 12:16:36;;;;;;;9.38;5.78;;;;;;;;;;4952127;29;20350;-66
2021/08/15 12:19:04;;;;;;;7.50;5.20;;;;;;;;;;4951830;29;20429;-66
2021/08/15 12:21:31;;;;;;;13.52;5.57;;;;;;;;;;4951479;29;20154;-67
2021/08/15 12:24:16;;;;;;;11.80;6.10;;;;;;;;;;5010107;28;20038;-67
2021/08/15 12:26:45;;;;;;;15.27;5.78;;;;;;;;;;4989984;28;20485;-67
2021/08/15 12:29:19;;;;;;;13.02;5.30;;;;;;;;;;5011940;28;20026;-66
2021/08/15 12:31:59;;;;;;;9.75;5.28;;;;;;;;;;5012163;28;20038;-66
2021/08/15 12:34:25;;;;;;;10.10;5.72;;;;;;;;;;5011945;28;20101;-65
2021/08/15 12:36:52;;;;;;;16.77;5.35;;;;;;;;;;5011302;28;20040;-65
2021/08/15 12:39:25;;;;;;;11.65;5.90;;;;;;;;;;5011671;28;20032;-67
2021/08/15 12:41:56;;;;;;;12.40;5.53;;;;;;;;;;5010922;28;20032;-67
2021/08/15 12:44:29;;;;;;;14.43;5.65;;;;;;;;;;5012756;28;20435;-66
2021/08/15 12:46:58;;;;;;;17.30;6.05;;;;;;;;;;5012521;28;20105;-66
2021/08/15 12:49:26;;;;;;;10.98;5.90;;;;;;;;;;5010344;28;20080;-67
2021/08/15 12:52:07;;;;;;;10.18;5.40;;;;;;;;;;5007939;28;20038;-67
2021/08/15 12:54:33;;;;;;;10.90;5.65;;;;;;;;;;5007240;28;20026;-67
2021/08/15 12:56:59;;;;;;;9.25;5.75;;;;;;;;;;5010583;28;20049;-68
2021/08/15 12:59:27;;;;;;;10.20;5.40;;;;;;;;;;5005517;28;20033;-69
2021/08/15 13:01:53;;;;;;;10.50;5.85;;;;;;;;;;5009848;28;20022;-67
2021/08/15 13:04:19;;;;;;;10.70;5.40;;;;;;;;;;5011221;28;20037;-67
2021/08/15 13:06:45;;;;;;;9.65;5.40;;;;;;;;;;5010847;28;20048;-67
2021/08/15 13:09:11;;;;;;;10.35;5.38;;;;;;;;;;5009928;28;20132;-71
2021/08/15 13:11:37;;;;;;;8.45;5.63;;;;;;;;;;5010127;28;20021;-71
2021/08/15 13:14:03;;;;;;;11.82;5.57;;;;;;;;;;5011078;28;20060;-71
2021/08/15 13:16:29;;;;;;;8.98;5.35;;;;;;;;;;5010225;28;20053;-71
2021/08/15 13:18:56;;;;;;;9.50;5.50;;;;;;;;;;4994514;28;20496;-71
2021/08/15 13:21:22;;;;;;;9.52;5.15;;;;;;;;;;5006405;28;20033;-72
2021/08/15 13:23:52;;;;;;;19.30;5.95;;;;;;;;;;5010274;28;20117;-70
2021/08/15 13:26:18;;;;;;;11.48;5.78;;;;;;;;;;5009457;28;20030;-64
2021/08/15 13:28:44;;;;;;;13.13;5.85;;;;;;;;;;5010190;28;20022;-65
2021/08/15 13:31:10;;;;;;;13.10;5.13;;;;;;;;;;5006541;28;20038;-64
2021/08/15 13:33:38;;;;;;;14.82;5.55;;;;;;;;;;5011201;28;20141;-65
2021/08/15 13:36:04;;;;;;;13.93;5.70;;;;;;;;;;5010730;28;20038;-64
2021/08/15 13:38:30;;;;;;;9.30;5.32;;;;;;;;;;5009812;28;20045;-67
2021/08/15 13:40:57;;;;;;;10.98;5.05;;;;;;;;;;5010513;28;20032;-65
2021/08/15 13:43:23;;;;;;;13.30;5.97;;;;;;;;;;5006634;28;20132;-65
2021/08/15 13:45:52;;;;;;;12.00;5.47;;;;;;;;;;5009270;28;20034;-65
2021/08/15 13:48:18;;;;;;;9.70;4.97;;;;;;;;;;5010230;28;20037;-64
2021/08/15 13:50:44;;;;;;;12.93;5.68;;;;;;;;;;5010885;28;20041;-64
2021/08/15 13:53:10;;;;;;;12.40;5.68;;;;;;;;;;5010977;28;20484;-64
2021/08/15 13:55:36;;;;;;;11.27;5.03;;;;;;;;;;5006762;28;20481;-64
2021/08/15 13:58:09;;;;;;;13.80;5.50;;;;;;;;;;5010928;28;20446;-64
2021/08/15 14:00:34;;;;;;;;;;;;;;;;;;5005289;28;20029;-64
2021/08/15 14:03:00;;;;;;;13.18;5.15;;;;;;;;;;5006047;28;19910;-62
2021/08/15 14:05:27;;;;;;;12.43;5.30;;;;;;;;;;5010021;28;20061;-65
2021/08/15 14:07:53;;;;;;;10.48;5.18;;;;;;;;;;5010221;28;20487;-65
2021/08/15 14:10:19;;;;;;;13.23;4.95;;;;;;;;;;5008890;28;20101;-69
2021/08/15 14:12:45;;;;;;;9.13;4.80;;;;;;;;;;5009129;28;20072;-66
2021/08/15 14:15:11;;;;;;;15.30;5.90;;;;;;;;;;5009196;28;20373;-66
2021/08/15 14:17:37;;;;;;;14.80;6.15;;;;;;;;;;5010110;28;20117;-64
2021/08/15 14:20:04;;;;;;;11.50;5.10;;;;;;;;;;5009391;28;20025;-67
2021/08/15 14:22:30;;;;;;;11.18;6.10;;;;;;;;;;5010370;28;20476;-64
2021/08/15 14:24:56;;;;;;;10.45;5.22;;;;;;;;;;5010374;28;20034;-64
2021/08/15 14:27:23;;;;;;;12.82;5.60;;;;;;;;;;5009577;28;20026;-66
2021/08/15 14:29:49;;;;;;;9.55;5.53;;;;;;;;;;4987100;28;20053;-69
2021/08/15 14:32:15;;;;;;;11.88;5.55;;;;;;;;;;5006810;28;20022;-66
2021/08/15 14:34:42;;;;;;;13.30;6.13;;;;;;;;;;5009283;28;20468;-63
2021/08/15 14:37:08;;;;;;;9.95;5.65;;;;;;;;;;5010369;28;20058;-64
2021/08/15 14:39:35;;;;;;;12.75;5.35;;;;;;;;;;5008854;28;20503;-66